createdAt,value
2023-04-22T00:00:54.724Z,5.45
2023-04-22T00:03:24.671Z,5.45
2023-04-22T00:05:51.818Z,5.90
2023-04-22T00:08:18.438Z,5.22
2023-04-22T00:10:44.806Z,5.68
2023-04-22T00:13:11.190Z,5.70
2023-04-22T00:15:37.670Z,5.68
2023-04-22T00:18:04.212Z,5.50
2023-04-22T00:20:33.017Z,5.53
2023-04-22T00:22:59.447Z,5.38
2023-04-22T00:25:25.906Z,5.72
2023-04-22T00:27:52.249Z,5.53
2023-04-22T00:30:18.572Z,5.17
2023-04-22T00:32:45.005Z,5.57
2023-04-22T00:35:11.584Z,5.03
2023-04-22T00:37:37.965Z,5.75
2023-04-22T00:40:04.715Z,5.30
2023-04-22T00:42:31.377Z,5.60
2023-04-22T00:44:58.407Z,5.68
2023-04-22T00:47:27.119Z,5.60
2023-04-22T00:49:54.975Z,5.25
2023-04-22T00:52:21.477Z,5.85
2023-04-22T00:54:49.598Z,5.30
2023-04-22T00:57:17.048Z,5.82
2023-04-22T00:59:44.317Z,5.18
2023-04-22T01:02:11.432Z,5.85
2023-04-22T01:04:38.768Z,5.57
2023-04-22T01:07:05.354Z,5.60
2023-04-22T01:09:31.787Z,6.00
2023-04-22T01:11:58.205Z,5.70
2023-04-22T01:14:25.478Z,5.32
2023-04-22T01:16:54.005Z,6.00
2023-04-22T01:19:20.715Z,5.77
2023-04-22T01:21:49.257Z,6.80
2023-04-22T01:24:15.859Z,5.72
2023-04-22T01:26:42.689Z,6.20
2023-04-22T01:29:09.134Z,6.13
2023-04-22T01:31:35.890Z,5.43
2023-04-22T01:34:02.511Z,5.93
2023-04-22T01:36:28.976Z,5.95
2023-04-22T01:38:56.012Z,6.05
2023-04-22T01:41:22.578Z,6.18
2023-04-22T01:43:49.623Z,5.87
2023-04-22T01:46:18.084Z,5.90
2023-04-22T01:48:50.304Z,6.50
2023-04-22T01:51:23.486Z,5.68
2023-04-22T01:53:50.950Z,5.95
2023-04-22T01:56:17.556Z,6.23
2023-04-22T01:58:44.304Z,5.60
2023-04-22T02:01:11.816Z,5.53
2023-04-22T02:03:38.431Z,5.70
2023-04-22T02:06:05.439Z,5.70
2023-04-22T02:08:31.902Z,5.60
2023-04-22T02:11:00.441Z,5.60
2023-04-22T02:13:34.202Z,5.30
2023-04-22T02:16:00.652Z,5.65
2023-04-22T02:18:27.121Z,4.75
2023-04-22T02:20:53.565Z,5.37
2023-04-22T02:23:20.372Z,6.45
2023-04-22T02:25:50.939Z,4.22
2023-04-22T02:28:18.076Z,4.43
2023-04-22T02:30:45.617Z,4.00
2023-04-22T02:33:12.259Z,4.13
2023-04-22T02:35:38.813Z,4.13
2023-04-22T02:38:05.310Z,4.05
2023-04-22T02:40:31.638Z,4.47
2023-04-22T02:42:57.944Z,4.07
2023-04-22T02:45:24.370Z,4.23
2023-04-22T02:47:50.754Z,7.18
2023-04-22T02:50:17.128Z,4.10
2023-04-22T02:52:43.468Z,4.18
2023-04-22T02:55:10.031Z,4.50
2023-04-22T02:57:36.425Z,4.50
2023-04-22T03:00:04.238Z,4.65
2023-04-22T03:02:30.824Z,4.25
2023-04-22T03:04:57.276Z,4.47
2023-04-22T03:07:23.724Z,4.38
2023-04-22T03:09:50.150Z,4.50
2023-04-22T03:12:16.497Z,4.70
2023-04-22T03:14:42.894Z,5.15
2023-04-22T03:17:09.332Z,4.75
2023-04-22T03:19:36.304Z,4.95
2023-04-22T03:22:02.679Z,8.90
2023-04-22T03:24:29.054Z,4.70
2023-04-22T03:26:55.524Z,4.57
2023-04-22T03:29:21.931Z,4.28
2023-04-22T03:31:48.357Z,4.90
2023-04-22T03:34:14.749Z,5.03
2023-04-22T03:36:41.242Z,4.88
2023-04-22T03:39:08.302Z,5.72
2023-04-22T03:41:34.828Z,4.60
2023-04-22T03:44:01.945Z,5.35
2023-04-22T03:46:28.719Z,4.70
2023-04-22T03:48:55.332Z,5.05
2023-04-22T03:51:21.715Z,4.40
2023-04-22T03:53:48.077Z,4.25
2023-04-22T03:56:14.446Z,4.68
2023-04-22T03:58:40.990Z,4.70
2023-04-22T04:01:07.863Z,4.78
2023-04-22T04:03:34.546Z,5.03
2023-04-22T04:06:01.401Z,5.03
2023-04-22T04:08:28.013Z,5.00
2023-04-22T04:10:54.373Z,5.10
2023-04-22T04:13:20.756Z,5.07
2023-04-22T04:15:47.255Z,5.18
2023-04-22T04:18:13.816Z,4.85
2023-04-22T04:20:40.344Z,5.53
2023-04-22T04:23:06.798Z,5.03
2023-04-22T04:25:38.378Z,5.47
2023-04-22T04:28:09.279Z,5.45
2023-04-22T04:30:36.663Z,5.15
2023-04-22T04:33:07.192Z,4.90
2023-04-22T04:35:35.268Z,5.03
2023-04-22T04:38:02.319Z,5.30
2023-04-22T04:40:31.772Z,5.30
2023-04-22T04:42:58.205Z,5.82
2023-04-22T04:45:25.050Z,5.43
2023-04-22T04:47:52.861Z,5.83
2023-04-22T04:50:22.654Z,6.18
2023-04-22T04:52:49.489Z,5.10
2023-04-22T04:55:16.740Z,5.40
2023-04-22T04:57:44.805Z,6.18
2023-04-22T05:00:11.558Z,5.90
2023-04-22T05:02:38.004Z,6.82
2023-04-22T05:05:04.729Z,5.07
2023-04-22T05:07:31.230Z,5.75
2023-04-22T05:09:57.645Z,6.20
2023-04-22T05:12:24.089Z,5.90
2023-04-22T05:14:50.531Z,5.75
2023-04-22T05:17:16.907Z,6.07
2023-04-22T05:19:43.244Z,6.28
2023-04-22T05:22:09.620Z,6.63
2023-04-22T05:24:36.012Z,6.57
2023-04-22T05:27:02.436Z,5.72
2023-04-22T05:29:28.997Z,5.90
2023-04-22T05:31:55.671Z,6.15
2023-04-22T05:34:22.098Z,6.70
2023-04-22T05:36:48.477Z,5.90
2023-04-22T05:39:14.803Z,6.25
2023-04-22T05:41:41.168Z,6.50
2023-04-22T05:44:07.805Z,6.28
2023-04-22T05:46:34.309Z,6.50
2023-04-22T05:49:00.831Z,7.03
2023-04-22T05:51:27.303Z,6.97
2023-04-22T05:53:53.743Z,6.80
2023-04-22T05:56:21.079Z,7.15
2023-04-22T05:58:47.461Z,7.72
2023-04-22T06:01:13.958Z,6.70
2023-04-22T06:03:40.620Z,7.80
2023-04-22T06:06:07.815Z,7.45
2023-04-22T06:08:34.429Z,8.23
2023-04-22T06:11:00.855Z,8.57
2023-04-22T06:13:27.893Z,8.60
2023-04-22T06:15:54.471Z,8.70
2023-04-22T06:18:21.199Z,7.55
2023-04-22T06:20:47.584Z,8.85
2023-04-22T06:23:14.034Z,8.73
2023-04-22T06:25:40.531Z,8.40
2023-04-22T06:28:06.866Z,8.85
2023-04-22T06:30:33.253Z,9.50
2023-04-22T06:32:59.790Z,10.48
2023-04-22T06:35:26.693Z,10.10
2023-04-22T06:37:53.068Z,11.77
2023-04-22T06:40:20.024Z,10.68
2023-04-22T06:42:46.374Z,13.93
2023-04-22T06:45:12.876Z,13.95
2023-04-22T06:47:39.964Z,12.93
2023-04-22T06:50:08.364Z,15.03
2023-04-22T06:52:35.296Z,13.10
2023-04-22T06:55:03.417Z,13.88
2023-04-22T06:57:30.834Z,14.07
2023-04-22T06:59:57.227Z,13.27
2023-04-22T07:02:23.670Z,14.67
2023-04-22T07:04:50.079Z,16.15
2023-04-22T07:07:16.555Z,14.65
2023-04-22T07:09:42.926Z,16.17
2023-04-22T07:12:09.324Z,16.70
2023-04-22T07:14:37.144Z,19.13
2023-04-22T07:17:03.525Z,16.77
2023-04-22T07:19:30.211Z,21.38
2023-04-22T07:21:56.607Z,18.52
2023-04-22T07:24:23.581Z,22.83
2023-04-22T07:26:50.171Z,19.23
2023-04-22T07:29:16.551Z,22.60
2023-04-22T07:31:42.968Z,24.83
2023-04-22T07:34:10.675Z,35.80
2023-04-22T07:36:37.416Z,52.15
2023-04-22T07:39:04.011Z,58.17
2023-04-22T07:41:30.462Z,52.95
2023-04-22T07:43:56.890Z,59.22
2023-04-22T07:46:23.595Z,60.75
2023-04-22T07:48:49.966Z,36.13
2023-04-22T07:51:16.326Z,35.37
2023-04-22T07:53:42.707Z,41.00
2023-04-22T07:56:09.173Z,33.63
2023-04-22T07:58:35.538Z,28.63
2023-04-22T08:01:01.969Z,19.05
2023-04-22T08:03:28.671Z,16.87
2023-04-22T08:05:58.148Z,19.92
2023-04-22T08:08:26.576Z,18.85
2023-04-22T08:10:52.994Z,20.30
2023-04-22T08:13:19.347Z,18.90
2023-04-22T08:15:45.767Z,17.67
2023-04-22T08:18:12.299Z,21.70
2023-04-22T08:20:38.642Z,19.33
2023-04-22T08:23:06.968Z,15.57
2023-04-22T08:25:34.698Z,14.82
2023-04-22T08:28:01.222Z,15.97
2023-04-22T08:30:27.693Z,15.95
2023-04-22T08:32:54.257Z,14.23
2023-04-22T08:35:20.733Z,14.93
2023-04-22T08:37:47.295Z,15.30
2023-04-22T08:40:13.717Z,14.20
2023-04-22T08:42:40.311Z,16.20
2023-04-22T08:45:07.035Z,13.75
2023-04-22T08:47:34.981Z,16.48
2023-04-22T08:50:06.270Z,15.13
2023-04-22T08:52:32.982Z,15.10
2023-04-22T08:54:59.750Z,12.90
2023-04-22T08:57:26.536Z,12.85
2023-04-22T08:59:53.079Z,12.80
2023-04-22T09:02:21.247Z,12.27
2023-04-22T09:04:49.841Z,10.27
2023-04-22T09:07:29.900Z,9.93
2023-04-22T09:09:57.876Z,9.73
2023-04-22T09:12:27.725Z,9.63
2023-04-22T09:14:55.479Z,9.10
2023-04-22T09:17:37.144Z,11.87
2023-04-22T09:20:06.758Z,9.68
2023-04-22T09:22:45.047Z,11.35
2023-04-22T09:25:26.438Z,10.50
2023-04-22T09:27:55.398Z,9.68
2023-04-22T09:30:27.357Z,10.83
2023-04-22T09:32:55.595Z,10.25
2023-04-22T09:35:27.907Z,9.50
2023-04-22T09:37:54.902Z,11.82
2023-04-22T09:40:21.486Z,8.88
2023-04-22T09:42:52.249Z,9.23
2023-04-22T09:45:29.171Z,10.32
2023-04-22T09:47:57.112Z,11.63
2023-04-22T09:50:28.481Z,11.35
2023-04-22T09:53:06.424Z,10.77
2023-04-22T09:55:36.427Z,10.53
2023-04-22T09:58:29.113Z,11.68
2023-04-22T10:00:59.115Z,10.98
2023-04-22T10:03:25.640Z,11.93
2023-04-22T10:05:52.272Z,11.77
2023-04-22T10:08:18.734Z,12.37
2023-04-22T10:10:45.891Z,10.50
2023-04-22T10:13:12.545Z,12.13
2023-04-22T10:15:51.856Z,12.18
2023-04-22T10:18:22.890Z,11.45
2023-04-22T10:20:51.040Z,9.83
2023-04-22T10:23:22.987Z,10.82
2023-04-22T10:25:53.776Z,10.82
2023-04-22T10:28:22.364Z,10.32
2023-04-22T10:30:49.216Z,10.45
2023-04-22T10:33:21.716Z,10.17
2023-04-22T10:36:08.115Z,11.27
2023-04-22T10:38:57.730Z,11.35
2023-04-22T10:41:26.031Z,10.35
2023-04-22T10:43:58.524Z,11.20
2023-04-22T10:46:35.377Z,10.20
2023-04-22T10:49:09.813Z,10.00
2023-04-22T10:51:42.214Z,9.82
2023-04-22T10:54:37.570Z,11.32
2023-04-22T10:57:05.895Z,10.95
2023-04-22T10:59:34.762Z,10.73
2023-04-22T11:02:13.159Z,10.75
2023-04-22T11:04:39.981Z,14.07
2023-04-22T11:07:17.063Z,11.48
2023-04-22T11:09:45.669Z,11.05
2023-04-22T11:12:38.291Z,12.33
2023-04-22T11:15:11.831Z,9.68
2023-04-22T11:17:40.118Z,10.13
2023-04-22T11:20:08.343Z,9.95
2023-04-22T11:22:39.728Z,8.75
2023-04-22T11:25:06.772Z,10.30
2023-04-22T11:27:33.175Z,11.32
2023-04-22T11:30:04.755Z,10.85
2023-04-22T11:32:32.071Z,11.65
2023-04-22T11:34:58.458Z,11.05
2023-04-22T11:37:25.231Z,11.23
2023-04-22T11:40:13.564Z,11.95
2023-04-22T11:42:39.030Z,11.38
2023-04-22T11:45:06.710Z,11.73
2023-04-22T11:47:34.716Z,12.15
2023-04-22T11:50:07.033Z,12.37
2023-04-22T11:53:02.820Z,13.27
2023-04-22T11:55:34.800Z,13.65
2023-04-22T11:58:05.078Z,16.05
2023-04-22T12:00:34.068Z,12.50
2023-04-22T12:03:03.350Z,12.10
2023-04-22T12:05:44.696Z,12.80
2023-04-22T12:08:12.997Z,11.98
2023-04-22T12:10:47.666Z,11.77
2023-04-22T12:13:25.525Z,12.95
2023-04-22T12:16:13.821Z,12.47
2023-04-22T12:18:41.721Z,11.57
2023-04-22T12:21:10.265Z,12.43
2023-04-22T12:23:53.135Z,13.15
2023-04-22T12:26:25.320Z,11.43
2023-04-22T12:28:53.533Z,13.07
2023-04-22T12:31:21.205Z,13.23
2023-04-22T12:33:47.824Z,12.27
2023-04-22T12:36:14.345Z,12.95
2023-04-22T12:38:41.365Z,12.32
2023-04-22T12:41:07.838Z,12.47
2023-04-22T12:43:36.750Z,11.88
2023-04-22T12:46:04.292Z,13.15
2023-04-22T12:48:31.000Z,12.88
2023-04-22T12:50:57.986Z,12.38
2023-04-22T12:53:25.381Z,12.00
2023-04-22T12:55:51.796Z,12.95
2023-04-22T12:58:18.210Z,11.90
2023-04-22T13:00:44.631Z,14.38
2023-04-22T13:03:11.376Z,11.93
2023-04-22T13:05:39.651Z,12.23
2023-04-22T13:08:08.016Z,12.02
2023-04-22T13:10:34.892Z,12.77
2023-04-22T13:13:16.678Z,12.63
2023-04-22T13:15:43.918Z,12.45
2023-04-22T13:18:10.374Z,13.07
2023-04-22T13:20:36.815Z,12.38
2023-04-22T13:23:04.667Z,14.98
2023-04-22T13:25:31.521Z,12.40
2023-04-22T13:27:57.954Z,13.93
2023-04-22T13:30:24.368Z,15.30
2023-04-22T13:32:50.776Z,15.55
2023-04-22T13:35:18.320Z,15.45
2023-04-22T13:37:45.337Z,16.45
2023-04-22T13:40:11.973Z,18.20
2023-04-22T13:42:38.334Z,18.80
2023-04-22T13:45:05.216Z,16.15
2023-04-22T13:47:31.737Z,15.77
2023-04-22T13:49:58.108Z,17.90
2023-04-22T13:52:24.615Z,15.93
2023-04-22T13:54:51.057Z,17.40
2023-04-22T13:57:18.001Z,16.98
2023-04-22T13:59:44.720Z,15.07
2023-04-22T14:02:11.132Z,16.42
2023-04-22T14:04:37.537Z,18.27
2023-04-22T14:07:04.128Z,19.43
2023-04-22T14:09:31.009Z,16.85
2023-04-22T14:11:57.462Z,15.98
2023-04-22T14:14:23.789Z,16.25
2023-04-22T14:16:50.394Z,16.48
2023-04-22T14:19:16.864Z,16.33
2023-04-22T14:21:43.237Z,17.30
2023-04-22T14:24:09.636Z,16.15
2023-04-22T14:26:36.064Z,16.48
2023-04-22T14:29:02.508Z,16.67
2023-04-22T14:31:28.924Z,16.83
2023-04-22T14:33:55.685Z,15.43
2023-04-22T14:36:22.075Z,17.58
2023-04-22T14:38:48.534Z,15.75
2023-04-22T14:41:15.097Z,16.67
2023-04-22T14:43:41.490Z,15.53
2023-04-22T14:46:07.944Z,15.73
2023-04-22T14:48:35.391Z,17.67
2023-04-22T14:51:02.138Z,16.15
2023-04-22T14:53:28.574Z,16.50
2023-04-22T14:55:56.481Z,17.33
2023-04-22T14:58:22.974Z,16.35
2023-04-22T15:00:50.279Z,17.65
2023-04-22T15:03:16.921Z,17.35
2023-04-22T15:05:43.842Z,18.05
2023-04-22T15:08:10.227Z,15.77
2023-04-22T15:10:36.792Z,15.77
2023-04-22T15:13:03.205Z,16.58
2023-04-22T15:15:29.601Z,15.57
2023-04-22T15:17:56.123Z,17.25
2023-04-22T15:20:22.631Z,16.27
2023-04-22T15:22:49.052Z,17.30
2023-04-22T15:25:17.878Z,18.33
2023-04-22T15:27:44.648Z,15.57
2023-04-22T15:30:11.784Z,15.25
2023-04-22T15:32:41.578Z,16.27
2023-04-22T15:35:08.302Z,15.75
2023-04-22T15:37:34.752Z,15.77
2023-04-22T15:40:01.382Z,16.45
2023-04-22T15:42:27.736Z,15.38
2023-04-22T15:44:54.069Z,16.50
2023-04-22T15:47:20.613Z,15.95
2023-04-22T15:49:47.030Z,16.38
2023-04-22T15:52:13.406Z,16.77
2023-04-22T15:54:39.837Z,16.30
2023-04-22T15:57:06.247Z,16.23
2023-04-22T15:59:32.667Z,17.98
2023-04-22T16:01:59.228Z,17.05
2023-04-22T16:04:26.002Z,17.73
2023-04-22T16:06:52.576Z,17.45
2023-04-22T16:09:19.221Z,18.60
2023-04-22T16:11:45.550Z,17.55
2023-04-22T16:14:12.230Z,19.13
2023-04-22T16:16:40.214Z,18.98
2023-04-22T16:19:07.690Z,20.10
2023-04-22T16:21:34.164Z,19.90
2023-04-22T16:24:00.891Z,22.63
2023-04-22T16:26:27.371Z,22.05
2023-04-22T16:28:54.880Z,24.52
2023-04-22T16:31:23.007Z,25.02
2023-04-22T16:33:51.234Z,21.27
2023-04-22T16:36:17.623Z,22.17
2023-04-22T16:38:44.126Z,18.50
2023-04-22T16:41:11.558Z,20.77
2023-04-22T16:43:40.884Z,20.10
2023-04-22T16:46:07.909Z,18.00
2023-04-22T16:48:34.419Z,20.70
2023-04-22T16:51:00.777Z,19.80
2023-04-22T16:53:27.186Z,20.30
2023-04-22T16:55:53.516Z,20.95
2023-04-22T16:58:19.846Z,19.83
2023-04-22T17:00:47.678Z,19.42
2023-04-22T17:03:14.576Z,18.83
2023-04-22T17:05:41.086Z,21.65
2023-04-22T17:08:07.748Z,19.10
2023-04-22T17:10:34.714Z,18.17
2023-04-22T17:13:01.371Z,17.63
2023-04-22T17:15:27.745Z,15.07
2023-04-22T17:17:54.222Z,18.63
2023-04-22T17:20:20.636Z,18.27
2023-04-22T17:22:47.090Z,18.93
2023-04-22T17:25:13.401Z,18.30
2023-04-22T17:27:39.828Z,18.67
2023-04-22T17:30:07.492Z,18.30
2023-04-22T17:32:34.592Z,19.17
2023-04-22T17:35:01.075Z,25.17
2023-04-22T17:37:27.499Z,20.63
2023-04-22T17:39:56.208Z,20.55
2023-04-22T17:42:25.223Z,22.52
2023-04-22T17:44:55.973Z,20.88
2023-04-22T17:47:22.402Z,21.80
2023-04-22T17:49:48.838Z,22.13
2023-04-22T17:52:15.877Z,20.75
2023-04-22T17:54:43.475Z,24.95
2023-04-22T17:57:12.127Z,26.90
2023-04-22T17:59:38.778Z,27.10
2023-04-22T18:02:05.536Z,30.70
2023-04-22T18:04:31.987Z,28.52
2023-04-22T18:06:58.406Z,31.13
2023-04-22T18:09:26.184Z,32.90
2023-04-22T18:11:52.771Z,27.50
2023-04-22T18:14:20.710Z,30.58
2023-04-22T18:16:47.115Z,34.47
2023-04-22T18:19:13.601Z,33.75
2023-04-22T18:21:49.576Z,36.53
2023-04-22T18:24:23.511Z,34.00
2023-04-22T18:26:49.928Z,34.70
2023-04-22T18:29:16.918Z,30.08
2023-04-22T18:31:43.441Z,30.17
2023-04-22T18:34:13.149Z,30.50
2023-04-22T18:36:40.408Z,31.63
2023-04-22T18:39:07.319Z,30.65
2023-04-22T18:41:33.688Z,28.77
2023-04-22T18:44:00.125Z,27.00
2023-04-22T18:46:26.530Z,28.13
2023-04-22T18:48:52.898Z,29.33
2023-04-22T18:51:19.383Z,27.05
2023-04-22T18:53:45.752Z,29.50
2023-04-22T18:56:12.599Z,27.42
2023-04-22T18:58:38.970Z,26.13
2023-04-22T19:01:05.885Z,30.30
2023-04-22T19:03:32.494Z,29.23
2023-04-22T19:05:59.042Z,28.73
2023-04-22T19:08:25.700Z,29.05
2023-04-22T19:10:52.058Z,26.95
2023-04-22T19:13:28.580Z,27.43
2023-04-22T19:15:55.942Z,31.10
2023-04-22T19:18:22.376Z,30.23
2023-04-22T19:20:48.915Z,27.63
2023-04-22T19:23:15.736Z,26.35
2023-04-22T19:25:42.613Z,29.10
2023-04-22T19:28:08.986Z,26.20
2023-04-22T19:30:35.348Z,27.98
2023-04-22T19:33:01.972Z,26.75
2023-04-22T19:35:28.567Z,31.33
2023-04-22T19:37:54.905Z,27.50
2023-04-22T19:40:21.271Z,27.98
2023-04-22T19:42:47.696Z,28.63
2023-04-22T19:45:14.082Z,28.48
2023-04-22T19:47:40.923Z,30.33
2023-04-22T19:50:09.237Z,31.37
2023-04-22T19:52:36.168Z,33.70
2023-04-22T19:55:08.658Z,31.40
2023-04-22T19:57:36.947Z,25.17
2023-04-22T20:00:07.062Z,27.33
2023-04-22T20:02:37.435Z,27.40
2023-04-22T20:05:08.279Z,26.83
2023-04-22T20:07:36.068Z,33.13
2023-04-22T20:10:03.861Z,28.20
2023-04-22T20:12:30.836Z,30.60
2023-04-22T20:14:58.819Z,28.87
2023-04-22T20:17:26.748Z,32.65
2023-04-22T20:19:54.838Z,32.63
2023-04-22T20:22:24.716Z,30.60
2023-04-22T20:25:04.174Z,28.67
2023-04-22T20:27:32.168Z,27.70
2023-04-22T20:29:59.502Z,27.33
2023-04-22T20:32:27.320Z,25.50
2023-04-22T20:34:54.963Z,28.13
2023-04-22T20:37:23.192Z,29.77
2023-04-22T20:39:50.615Z,28.53
2023-04-22T20:42:21.781Z,29.02
2023-04-22T20:44:48.325Z,32.05
2023-04-22T20:47:16.403Z,35.00
2023-04-22T20:49:43.276Z,27.45
2023-04-22T20:52:11.871Z,29.93
2023-04-22T20:54:39.480Z,30.15
2023-04-22T20:57:07.234Z,27.88
2023-04-22T20:59:34.567Z,31.48
2023-04-22T21:02:01.953Z,30.13
2023-04-22T21:04:29.151Z,26.07
2023-04-22T21:06:56.580Z,26.65
2023-04-22T21:09:26.973Z,32.85
2023-04-22T21:11:54.572Z,30.63
2023-04-22T21:14:22.319Z,30.70
2023-04-22T21:16:57.428Z,37.20
2023-04-22T21:19:24.597Z,30.75
2023-04-22T21:21:53.084Z,33.13
2023-04-22T21:24:21.023Z,31.48
2023-04-22T21:26:47.851Z,31.98
2023-04-22T21:29:14.447Z,36.03
2023-04-22T21:31:40.973Z,31.63
2023-04-22T21:34:09.542Z,32.88
2023-04-22T21:36:35.960Z,35.30
2023-04-22T21:39:04.520Z,36.50
2023-04-22T21:41:31.430Z,42.40
2023-04-22T21:43:57.745Z,37.95
2023-04-22T21:46:24.535Z,36.83
2023-04-22T21:48:50.972Z,40.88
2023-04-22T21:51:17.440Z,41.78
2023-04-22T21:53:44.416Z,36.20
2023-04-22T21:56:10.996Z,33.10
2023-04-22T21:58:37.486Z,39.10
2023-04-22T22:01:03.872Z,40.05
2023-04-22T22:03:31.488Z,38.35
2023-04-22T22:05:57.982Z,40.43
2023-04-22T22:08:24.480Z,43.83
2023-04-22T22:10:51.057Z,37.30
2023-04-22T22:13:17.471Z,37.78
2023-04-22T22:15:43.826Z,40.80
2023-04-22T22:18:10.302Z,38.93
2023-04-22T22:20:36.776Z,39.95
2023-04-22T22:23:03.528Z,40.75
2023-04-22T22:25:29.851Z,47.40
2023-04-22T22:27:56.246Z,44.75
2023-04-22T22:30:22.708Z,44.87
2023-04-22T22:32:49.403Z,40.55
2023-04-22T22:35:16.276Z,41.97
2023-04-22T22:37:42.719Z,44.40
2023-04-22T22:40:10.115Z,41.20
2023-04-22T22:42:36.588Z,40.03
2023-04-22T22:45:05.015Z,44.88
2023-04-22T22:47:31.494Z,42.35
2023-04-22T22:49:57.956Z,42.95
2023-04-22T22:52:24.455Z,42.42
2023-04-22T22:54:50.888Z,44.27
2023-04-22T22:57:17.298Z,41.63
2023-04-22T22:59:43.696Z,49.58
2023-04-22T23:02:10.647Z,45.15
2023-04-22T23:04:39.287Z,46.22
2023-04-22T23:07:05.841Z,39.57
2023-04-22T23:09:32.186Z,43.22
2023-04-22T23:11:58.597Z,44.00
2023-04-22T23:14:26.884Z,41.15
2023-04-22T23:16:53.497Z,44.90
2023-04-22T23:19:20.742Z,39.23
2023-04-22T23:21:47.406Z,39.58
2023-04-22T23:24:15.295Z,42.47
2023-04-22T23:26:42.743Z,41.35
2023-04-22T23:29:09.388Z,41.55
2023-04-22T23:31:36.023Z,42.30
2023-04-22T23:34:05.234Z,47.65
2023-04-22T23:36:36.209Z,45.00
2023-04-22T23:39:09.675Z,39.72
2023-04-22T23:41:36.678Z,40.67
2023-04-22T23:44:03.048Z,41.97
2023-04-22T23:46:29.556Z,42.55
2023-04-22T23:48:57.165Z,44.97
2023-04-22T23:51:23.952Z,42.55
2023-04-22T23:53:50.375Z,44.70
2023-04-22T23:56:20.990Z,44.00
2023-04-22T23:58:47.889Z,47.72
